createdAt,value
2019-05-17T00:01:28.169Z,12.45
2019-05-17T00:07:32.387Z,11.95
2019-05-17T00:13:38.695Z,11.95
2019-05-17T00:19:42.653Z,13.43
2019-05-17T00:25:47.137Z,12.70
2019-05-17T00:31:51.423Z,15.13
2019-05-17T00:37:57.076Z,14.58
2019-05-17T00:44:01.510Z,13.55
2019-05-17T00:50:07.458Z,14.93
2019-05-17T00:56:11.878Z,16.70
2019-05-17T01:02:16.402Z,15.40
2019-05-17T01:08:20.684Z,16.87
2019-05-17T01:14:26.583Z,15.18
2019-05-17T01:20:30.892Z,17.70
2019-05-17T01:26:37.213Z,17.25
2019-05-17T01:32:41.156Z,15.25
2019-05-17T01:38:46.891Z,13.75
2019-05-17T01:44:51.280Z,15.08
2019-05-17T01:50:56.839Z,16.30
2019-05-17T01:57:01.368Z,15.18
2019-05-17T02:03:07.004Z,15.03
2019-05-17T02:09:11.648Z,15.08
2019-05-17T02:15:16.448Z,14.78
2019-05-17T02:21:20.905Z,16.87
2019-05-17T02:27:31.586Z,16.75
2019-05-17T02:33:34.930Z,17.10
2019-05-17T02:39:56.566Z,18.45
2019-05-17T02:45:45.145Z,17.05
2019-05-17T02:51:52.551Z,17.95
2019-05-17T02:57:55.264Z,18.20
2019-05-17T03:03:59.628Z,18.70
2019-05-17T03:10:21.636Z,18.77
2019-05-17T03:16:10.179Z,17.55
2019-05-17T03:22:15.445Z,18.17
2019-05-17T03:28:23.236Z,16.85
2019-05-17T03:34:26.918Z,19.10
2019-05-17T03:41:01.325Z,19.37
2019-05-17T03:46:37.556Z,20.37
2019-05-17T03:52:44.688Z,20.75
2019-05-17T03:58:47.769Z,20.55
2019-05-17T04:04:52.941Z,21.25
2019-05-17T04:10:57.592Z,21.02
2019-05-17T04:17:03.025Z,24.80
2019-05-17T04:23:07.641Z,23.50
2019-05-17T04:29:13.598Z,28.20
2019-05-17T04:35:18.127Z,27.35
2019-05-17T04:41:39.553Z,29.20
2019-05-17T04:47:28.487Z,27.35
2019-05-17T04:53:33.277Z,34.58
2019-05-17T04:59:37.542Z,28.30
2019-05-17T05:05:42.841Z,28.62
2019-05-17T05:11:57.115Z,33.45
2019-05-17T05:17:53.470Z,34.33
2019-05-17T05:23:57.680Z,34.67
2019-05-17T05:30:03.032Z,31.30
2019-05-17T05:36:07.603Z,32.38
2019-05-17T05:42:13.957Z,30.65
2019-05-17T05:48:18.167Z,28.20
2019-05-17T05:54:22.622Z,29.85
2019-05-17T06:00:27.016Z,28.23
2019-05-17T06:06:32.214Z,29.10
2019-05-17T06:12:36.587Z,29.42
2019-05-17T06:18:42.507Z,29.48
2019-05-17T06:24:46.883Z,32.75
2019-05-17T06:30:52.178Z,31.75
2019-05-17T06:36:56.566Z,28.00
2019-05-17T06:43:04.245Z,28.80
2019-05-17T06:49:06.763Z,29.35
2019-05-17T06:55:12.841Z,27.45
2019-05-17T07:01:20.031Z,26.93
2019-05-17T07:07:30.154Z,27.40
2019-05-17T07:13:33.452Z,26.75
2019-05-17T07:19:39.881Z,24.82
2019-05-17T07:25:43.615Z,28.35
2019-05-17T07:31:49.794Z,27.93
2019-05-17T07:37:53.879Z,28.57
2019-05-17T07:44:00.275Z,27.42
2019-05-17T07:50:04.868Z,26.85
2019-05-17T07:56:10.271Z,28.83
2019-05-17T08:02:14.685Z,29.35
2019-05-17T08:08:20.754Z,30.57
2019-05-17T08:14:29.996Z,31.12
2019-05-17T08:20:30.940Z,32.03
2019-05-17T08:26:35.216Z,31.77
2019-05-17T08:32:40.258Z,32.80
2019-05-17T08:38:44.822Z,34.88
2019-05-17T08:44:49.846Z,33.67
2019-05-17T08:50:54.220Z,35.28
2019-05-17T08:57:00.503Z,33.38
2019-05-17T09:03:04.372Z,34.85
2019-05-17T09:09:10.040Z,38.80
2019-05-17T09:15:14.688Z,40.78
2019-05-17T09:21:21.683Z,38.15
2019-05-17T09:27:24.546Z,40.90
2019-05-17T09:33:29.987Z,41.60
2019-05-17T09:39:34.701Z,41.77
2019-05-17T09:45:40.305Z,39.83
2019-05-17T09:51:44.960Z,46.65
2019-05-17T09:57:49.708Z,51.25
2019-05-17T10:03:54.092Z,45.50
2019-05-17T10:09:59.729Z,47.00
2019-05-17T10:16:04.253Z,54.00
2019-05-17T10:22:10.394Z,50.88
2019-05-17T10:28:14.430Z,44.20
2019-05-17T10:34:20.307Z,44.67
2019-05-17T10:40:24.765Z,43.90
2019-05-17T10:46:30.082Z,43.58
2019-05-17T10:52:34.433Z,48.17
2019-05-17T10:58:39.964Z,48.25
2019-05-17T11:04:44.384Z,47.75
2019-05-17T11:10:50.141Z,55.45
2019-05-17T11:16:54.924Z,51.65
2019-05-17T11:22:59.244Z,46.35
2019-05-17T11:29:03.552Z,43.33
2019-05-17T11:35:07.993Z,43.78
2019-05-17T11:41:20.968Z,43.13
2019-05-17T11:47:18.174Z,39.00
2019-05-17T11:53:22.518Z,41.48
2019-05-17T11:59:26.730Z,40.30
2019-05-17T12:05:31.084Z,46.08
2019-05-17T12:11:35.368Z,53.02
2019-05-17T12:17:39.698Z,52.15
2019-05-17T12:23:43.968Z,52.20
2019-05-17T12:29:48.192Z,53.83
2019-05-17T12:35:52.479Z,51.70
2019-05-17T12:41:56.782Z,52.13
2019-05-17T12:48:01.125Z,52.20
2019-05-17T12:54:05.576Z,50.83
2019-05-17T13:00:12.253Z,52.93
2019-05-17T13:06:16.597Z,54.45
2019-05-17T13:12:21.468Z,56.45
2019-05-17T13:18:25.669Z,56.65
2019-05-17T13:24:30.041Z,43.25
2019-05-17T13:30:34.243Z,48.98
2019-05-17T13:36:41.271Z,47.93
2019-05-17T13:42:45.545Z,50.45
2019-05-17T13:48:49.792Z,51.40
2019-05-17T13:54:53.987Z,55.25
2019-05-17T14:00:58.227Z,51.48
2019-05-17T14:07:02.434Z,48.35
2019-05-17T14:13:06.803Z,53.58
2019-05-17T14:19:11.202Z,53.23
2019-05-17T14:25:15.649Z,50.92
2019-05-17T14:31:19.937Z,52.53
2019-05-17T14:37:24.310Z,54.73
2019-05-17T14:43:31.549Z,54.70
2019-05-17T14:49:34.531Z,48.65
2019-05-17T14:55:38.751Z,50.75
2019-05-17T15:01:42.963Z,47.45
2019-05-17T15:07:47.153Z,46.02
2019-05-17T15:13:51.352Z,45.65
2019-05-17T15:19:55.696Z,50.10
2019-05-17T15:26:00.182Z,47.20
2019-05-17T15:32:04.469Z,42.53
2019-05-17T15:38:11.026Z,45.70
2019-05-17T15:44:14.712Z,46.37
2019-05-17T15:50:19.541Z,44.85
2019-05-17T15:56:23.761Z,45.80
2019-05-17T16:02:28.050Z,48.05
2019-05-17T16:08:32.268Z,48.13
2019-05-17T16:14:36.559Z,48.75
2019-05-17T16:20:40.828Z,48.02
2019-05-17T16:26:45.138Z,48.92
2019-05-17T16:32:49.361Z,60.17
2019-05-17T16:38:53.676Z,55.40
2019-05-17T16:44:57.930Z,55.78
2019-05-17T16:51:02.691Z,58.63
2019-05-17T16:57:07.022Z,55.73
2019-05-17T17:03:11.292Z,55.23
2019-05-17T17:09:15.574Z,55.43
2019-05-17T17:15:19.926Z,52.20
2019-05-17T17:21:24.203Z,58.90
2019-05-17T17:27:28.437Z,56.73
2019-05-17T17:33:32.759Z,60.85
2019-05-17T17:39:37.059Z,58.15
2019-05-17T17:45:41.287Z,50.75
2019-05-17T17:51:45.612Z,45.05
2019-05-17T17:57:50.108Z,46.58
2019-05-17T18:03:54.369Z,50.20
2019-05-17T18:09:58.728Z,55.63
2019-05-17T18:16:03.183Z,49.58
2019-05-17T18:22:07.437Z,48.78
2019-05-17T18:28:11.799Z,50.55
2019-05-17T18:34:16.128Z,53.20
2019-05-17T18:40:20.343Z,51.48
2019-05-17T18:46:24.617Z,54.90
2019-05-17T18:52:28.914Z,55.75
2019-05-17T18:58:33.379Z,55.10
2019-05-17T19:04:37.646Z,53.78
2019-05-17T19:10:42.514Z,56.63
2019-05-17T19:16:46.994Z,52.05
2019-05-17T19:22:51.354Z,51.23
2019-05-17T19:28:55.584Z,51.33
2019-05-17T19:34:59.830Z,49.67
2019-05-17T19:41:04.129Z,46.92
2019-05-17T19:47:08.359Z,48.40
2019-05-17T19:53:12.917Z,45.92
2019-05-17T19:59:17.455Z,46.50
2019-05-17T20:05:21.762Z,43.95
2019-05-17T20:11:34.148Z,42.98
2019-05-17T20:17:32.096Z,47.38
2019-05-17T20:23:36.359Z,46.90
2019-05-17T20:29:40.648Z,46.48
2019-05-17T20:35:44.960Z,44.63
2019-05-17T20:41:49.258Z,43.73
2019-05-17T20:47:53.581Z,43.73
2019-05-17T20:53:57.891Z,41.98
2019-05-17T21:00:02.195Z,41.33
2019-05-17T21:06:06.576Z,38.73
2019-05-17T21:12:10.903Z,37.33
2019-05-17T21:18:15.252Z,38.75
2019-05-17T21:24:19.575Z,37.65
2019-05-17T21:30:23.895Z,38.90
2019-05-17T21:36:28.257Z,39.55
2019-05-17T21:42:32.601Z,37.20
2019-05-17T21:48:36.883Z,36.70
2019-05-17T21:54:41.162Z,39.78
2019-05-17T22:01:24.930Z,36.63
2019-05-17T22:07:29.251Z,37.65
2019-05-17T22:13:33.556Z,36.05
2019-05-17T22:19:37.881Z,35.05
2019-05-17T22:25:42.111Z,36.15
2019-05-17T22:31:46.405Z,34.27
2019-05-17T22:37:50.674Z,35.43
2019-05-17T22:43:54.993Z,39.55
2019-05-17T22:49:59.234Z,39.15
2019-05-17T22:56:04.432Z,35.95
2019-05-17T23:02:08.724Z,35.43
2019-05-17T23:08:13.082Z,36.53
2019-05-17T23:14:17.288Z,38.67
2019-05-17T23:20:21.592Z,36.73
2019-05-17T23:26:25.824Z,36.95
2019-05-17T23:32:30.514Z,38.10
2019-05-17T23:38:34.788Z,36.63
2019-05-17T23:44:39.065Z,39.63
2019-05-17T23:50:43.293Z,42.23
2019-05-17T23:56:47.534Z,39.42
